EIN27T EIDW-EGBB
Flight info
| Callsign | EIN27T |
|---|---|
| Flight time | 0h 38m |
| Altitude | 23000 |
| Route | DEXEN4E DEXEN Y124 DOLOP |
| Aircraft | A320/M-SDE3FGHIRWY/LB1 |
Departure
| Time | 2026-05-04 18:38 |
|---|---|
| Airport | Dublin Airport (EIDW) |
Arrival
| Time | 2026-05-04 19:16 |
|---|---|
| Airport | Birmingham Airport (EGBB) |
| Time | Latitude | Longitude | Altitude | Speed | Heading |
|---|---|---|---|---|---|
| 2026-05-04 18:05 | 53.42403 | -6.24150 | 216 ft | 0 kts | 323° |
| 2026-05-04 18:22 | 53.42392 | -6.24137 | 215 ft | 4 kts | 322° |
| 2026-05-04 18:22 | 53.42372 | -6.24109 | 213 ft | 4 kts | 315° |
| 2026-05-04 18:22 | 53.42356 | -6.24075 | 211 ft | 4 kts | 279° |
| 2026-05-04 18:23 | 53.42359 | -6.24038 | 211 ft | 4 kts | 244° |
| 2026-05-04 18:23 | 53.42374 | -6.24003 | 212 ft | 2 kts | 224° |
| 2026-05-04 18:23 | 53.42375 | -6.24001 | 219 ft | 0 kts | 224° |
| 2026-05-04 18:26 | 53.42372 | -6.24006 | 213 ft | 4 kts | 224° |
| 2026-05-04 18:26 | 53.42341 | -6.24057 | 213 ft | 6 kts | 224° |
| 2026-05-04 18:26 | 53.42308 | -6.24102 | 211 ft | 7 kts | 210° |
| 2026-05-04 18:26 | 53.42266 | -6.24124 | 212 ft | 6 kts | 194° |
| 2026-05-04 18:27 | 53.42232 | -6.24144 | 213 ft | 5 kts | 207° |
| 2026-05-04 18:27 | 53.42206 | -6.24179 | 211 ft | 7 kts | 222° |
| 2026-05-04 18:27 | 53.42163 | -6.24262 | 211 ft | 12 kts | 245° |
| 2026-05-04 18:27 | 53.42162 | -6.24391 | 214 ft | 11 kts | 275° |
| 2026-05-04 18:28 | 53.42170 | -6.24533 | 211 ft | 15 kts | 276° |
| 2026-05-04 18:28 | 53.42182 | -6.24735 | 211 ft | 17 kts | 275° |
| 2026-05-04 18:28 | 53.42191 | -6.24926 | 211 ft | 15 kts | 274° |
| 2026-05-04 18:28 | 53.42201 | -6.25113 | 211 ft | 17 kts | 276° |
| 2026-05-04 18:29 | 53.42212 | -6.25304 | 212 ft | 15 kts | 275° |
| 2026-05-04 18:29 | 53.42221 | -6.25474 | 211 ft | 14 kts | 275° |
| 2026-05-04 18:29 | 53.42229 | -6.25625 | 211 ft | 14 kts | 275° |
| 2026-05-04 18:29 | 53.42238 | -6.25794 | 213 ft | 14 kts | 275° |
| 2026-05-04 18:30 | 53.42261 | -6.26190 | 211 ft | 23 kts | 275° |
| 2026-05-04 18:30 | 53.42275 | -6.26466 | 215 ft | 24 kts | 275° |
| 2026-05-04 18:30 | 53.42291 | -6.26752 | 211 ft | 26 kts | 275° |
| 2026-05-04 18:31 | 53.42309 | -6.27059 | 219 ft | 27 kts | 275° |
| 2026-05-04 18:31 | 53.42325 | -6.27382 | 211 ft | 28 kts | 275° |
| 2026-05-04 18:31 | 53.42344 | -6.27718 | 211 ft | 30 kts | 275° |
| 2026-05-04 18:31 | 53.42364 | -6.28068 | 211 ft | 31 kts | 275° |
| 2026-05-04 18:32 | 53.42384 | -6.28424 | 211 ft | 31 kts | 275° |
| 2026-05-04 18:32 | 53.42404 | -6.28794 | 211 ft | 30 kts | 276° |
| 2026-05-04 18:32 | 53.42405 | -6.29013 | 214 ft | 13 kts | 246° |
| 2026-05-04 18:32 | 53.42379 | -6.29058 | 211 ft | 3 kts | 214° |
| 2026-05-04 18:33 | 53.42363 | -6.29072 | 210 ft | 2 kts | 202° |
| 2026-05-04 18:33 | 53.42350 | -6.29077 | 210 ft | 2 kts | 191° |
| 2026-05-04 18:33 | 53.42346 | -6.29077 | 210 ft | 0 kts | 186° |
| 2026-05-04 18:36 | 53.42344 | -6.29078 | 210 ft | 3 kts | 186° |
| 2026-05-04 18:37 | 53.42296 | -6.29072 | 210 ft | 10 kts | 172° |
| 2026-05-04 18:37 | 53.42242 | -6.29007 | 212 ft | 10 kts | 102° |
| 2026-05-04 18:37 | 53.42237 | -6.28899 | 212 ft | 9 kts | 96° |
| 2026-05-04 18:37 | 53.42220 | -6.28604 | 217 ft | 57 kts | 95° |
| 2026-05-04 18:38 | 53.42163 | -6.27569 | 218 ft | 120 kts | 95° |
| 2026-05-04 18:38 | 53.42059 | -6.25872 | 239 ft | 167 kts | 95° |
| 2026-05-04 18:38 | 53.41978 | -6.23943 | 896 ft | 164 kts | 95° |
| 2026-05-04 18:38 | 53.41876 | -6.22044 | 1614 ft | 166 kts | 93° |
| 2026-05-04 18:39 | 53.41765 | -6.20027 | 1961 ft | 186 kts | 93° |
| 2026-05-04 18:39 | 53.41638 | -6.17729 | 2251 ft | 210 kts | 93° |
| 2026-05-04 18:39 | 53.41495 | -6.15149 | 2636 ft | 234 kts | 93° |
| 2026-05-04 18:39 | 53.41334 | -6.12287 | 3101 ft | 256 kts | 93° |
| 2026-05-04 18:40 | 53.41161 | -6.09244 | 3883 ft | 265 kts | 94° |
| 2026-05-04 18:40 | 53.40985 | -6.06169 | 4721 ft | 271 kts | 94° |
| 2026-05-04 18:40 | 53.40583 | -6.03055 | 5545 ft | 277 kts | 116° |
| 2026-05-04 18:40 | 53.39569 | -6.00295 | 6440 ft | 280 kts | 128° |
| 2026-05-04 18:41 | 53.38322 | -5.97763 | 7274 ft | 282 kts | 133° |
| 2026-05-04 18:41 | 53.36992 | -5.95311 | 8116 ft | 286 kts | 133° |
| 2026-05-04 18:41 | 53.35655 | -5.92863 | 8946 ft | 289 kts | 132° |
| 2026-05-04 18:41 | 53.34309 | -5.90333 | 9777 ft | 293 kts | 131° |
| 2026-05-04 18:42 | 53.32980 | -5.87690 | 10393 ft | 305 kts | 125° |
| 2026-05-04 18:42 | 53.31937 | -5.84454 | 10628 ft | 328 kts | 110° |
| 2026-05-04 18:42 | 53.31346 | -5.80679 | 11019 ft | 342 kts | 98° |
| 2026-05-04 18:42 | 53.30979 | -5.76712 | 11694 ft | 348 kts | 99° |
| 2026-05-04 18:43 | 53.30567 | -5.72696 | 12431 ft | 352 kts | 99° |
| 2026-05-04 18:43 | 53.30262 | -5.68510 | 12691 ft | 370 kts | 95° |
| 2026-05-04 18:43 | 53.30073 | -5.64230 | 13268 ft | 376 kts | 93° |
| 2026-05-04 18:43 | 53.29927 | -5.59821 | 13940 ft | 380 kts | 92° |
| 2026-05-04 18:44 | 53.29800 | -5.55392 | 14556 ft | 383 kts | 92° |
| 2026-05-04 18:44 | 53.29759 | -5.53940 | 14762 ft | 384 kts | 92° |
| 2026-05-04 18:44 | 53.29531 | -5.46467 | 15822 ft | 388 kts | 93° |
| 2026-05-04 18:44 | 53.29376 | -5.41949 | 16454 ft | 390 kts | 93° |
| 2026-05-04 18:45 | 53.29211 | -5.37388 | 17082 ft | 393 kts | 93° |
| 2026-05-04 18:45 | 53.29038 | -5.32818 | 17719 ft | 395 kts | 93° |
| 2026-05-04 18:45 | 53.28863 | -5.28270 | 18333 ft | 398 kts | 93° |
| 2026-05-04 18:45 | 53.28681 | -5.23627 | 18880 ft | 400 kts | 93° |
| 2026-05-04 18:46 | 53.28498 | -5.18958 | 19417 ft | 402 kts | 93° |
| 2026-05-04 18:46 | 53.28316 | -5.14323 | 19959 ft | 404 kts | 93° |
| 2026-05-04 18:46 | 53.28133 | -5.09614 | 20486 ft | 406 kts | 93° |
| 2026-05-04 18:46 | 53.27949 | -5.04900 | 20981 ft | 408 kts | 93° |
| 2026-05-04 18:47 | 53.27762 | -5.00144 | 21470 ft | 411 kts | 93° |
| 2026-05-04 18:47 | 53.27571 | -4.95372 | 21942 ft | 413 kts | 93° |
| 2026-05-04 18:47 | 53.27377 | -4.90618 | 22411 ft | 415 kts | 93° |
| 2026-05-04 18:47 | 53.27173 | -4.85793 | 22853 ft | 418 kts | 93° |
| 2026-05-04 18:48 | 53.26964 | -4.80922 | 23059 ft | 420 kts | 93° |
| 2026-05-04 18:48 | 53.26753 | -4.75987 | 23086 ft | 431 kts | 93° |
| 2026-05-04 18:48 | 53.26537 | -4.70933 | 23086 ft | 438 kts | 93° |
| 2026-05-04 18:48 | 53.26322 | -4.65896 | 23081 ft | 439 kts | 93° |
| 2026-05-04 18:49 | 53.26102 | -4.60799 | 23080 ft | 440 kts | 93° |
| 2026-05-04 18:49 | 53.25876 | -4.55676 | 23084 ft | 440 kts | 93° |
| 2026-05-04 18:49 | 53.25646 | -4.50580 | 23086 ft | 440 kts | 94° |
| 2026-05-04 18:49 | 53.25416 | -4.45543 | 23084 ft | 440 kts | 94° |
| 2026-05-04 18:50 | 53.25182 | -4.40445 | 23085 ft | 440 kts | 94° |
| 2026-05-04 18:50 | 53.24947 | -4.35333 | 23079 ft | 440 kts | 94° |
| 2026-05-04 18:50 | 53.24715 | -4.30235 | 23083 ft | 440 kts | 94° |
| 2026-05-04 18:50 | 53.24481 | -4.25128 | 23080 ft | 440 kts | 94° |
| 2026-05-04 18:51 | 53.24244 | -4.20034 | 23078 ft | 440 kts | 94° |
| 2026-05-04 18:51 | 53.24004 | -4.14941 | 23077 ft | 440 kts | 94° |
| 2026-05-04 18:51 | 53.23762 | -4.09916 | 23073 ft | 439 kts | 94° |
| 2026-05-04 18:51 | 53.23516 | -4.04822 | 23072 ft | 439 kts | 94° |
| 2026-05-04 18:52 | 53.23267 | -3.99717 | 23070 ft | 439 kts | 94° |
| 2026-05-04 18:52 | 53.23100 | -3.96343 | 23070 ft | 439 kts | 94° |
| 2026-05-04 18:52 | 53.22845 | -3.91230 | 23068 ft | 439 kts | 94° |
| 2026-05-04 18:52 | 53.22594 | -3.86205 | 23072 ft | 439 kts | 94° |
| 2026-05-04 18:53 | 53.22339 | -3.81112 | 23067 ft | 439 kts | 94° |
| 2026-05-04 18:53 | 53.22082 | -3.76024 | 23067 ft | 439 kts | 94° |
| 2026-05-04 18:53 | 53.21823 | -3.70935 | 23070 ft | 439 kts | 94° |
| 2026-05-04 18:53 | 53.21561 | -3.65855 | 23072 ft | 439 kts | 94° |
| 2026-05-04 18:54 | 53.21302 | -3.60781 | 23071 ft | 439 kts | 94° |
| 2026-05-04 18:54 | 53.21062 | -3.55697 | 23068 ft | 439 kts | 94° |
| 2026-05-04 18:54 | 53.20842 | -3.50681 | 23073 ft | 438 kts | 93° |
| 2026-05-04 18:54 | 53.20626 | -3.45593 | 23068 ft | 438 kts | 93° |
| 2026-05-04 18:55 | 53.20408 | -3.40509 | 23072 ft | 438 kts | 93° |
| 2026-05-04 18:55 | 53.19952 | -3.30380 | 23061 ft | 438 kts | 94° |
| 2026-05-04 18:55 | 53.19689 | -3.25301 | 23055 ft | 438 kts | 97° |
| 2026-05-04 18:56 | 53.19046 | -3.20326 | 23051 ft | 439 kts | 106° |
| 2026-05-04 18:56 | 53.17929 | -3.15587 | 23049 ft | 440 kts | 115° |
| 2026-05-04 18:56 | 53.16384 | -3.11169 | 23047 ft | 441 kts | 121° |
| 2026-05-04 18:56 | 53.14758 | -3.06895 | 23047 ft | 441 kts | 121° |
| 2026-05-04 18:57 | 53.13126 | -3.02609 | 22791 ft | 435 kts | 121° |
| 2026-05-04 18:57 | 53.11496 | -2.98329 | 21680 ft | 438 kts | 122° |
| 2026-05-04 18:57 | 53.09869 | -2.94066 | 21003 ft | 432 kts | 122° |
| 2026-05-04 18:57 | 53.08260 | -2.89845 | 20313 ft | 428 kts | 122° |
| 2026-05-04 18:58 | 53.06630 | -2.85711 | 19693 ft | 425 kts | 125° |
| 2026-05-04 18:58 | 53.04918 | -2.81699 | 19178 ft | 424 kts | 127° |
| 2026-05-04 18:58 | 53.03172 | -2.77817 | 18628 ft | 422 kts | 128° |
| 2026-05-04 18:58 | 53.01390 | -2.73951 | 18065 ft | 420 kts | 129° |
| 2026-05-04 18:59 | 53.00935 | -2.72967 | 17913 ft | 419 kts | 129° |
| 2026-05-04 18:59 | 52.99892 | -2.70706 | 17594 ft | 418 kts | 128° |
| 2026-05-04 18:59 | 52.98134 | -2.66874 | 17072 ft | 415 kts | 128° |
| 2026-05-04 18:59 | 52.96401 | -2.63059 | 16543 ft | 412 kts | 128° |
| 2026-05-04 19:00 | 52.94691 | -2.59252 | 16020 ft | 410 kts | 127° |
| 2026-05-04 19:00 | 52.92998 | -2.55460 | 15503 ft | 407 kts | 127° |
| 2026-05-04 19:00 | 52.91339 | -2.51742 | 14992 ft | 404 kts | 127° |
| 2026-05-04 19:00 | 52.89661 | -2.48000 | 14476 ft | 402 kts | 127° |
| 2026-05-04 19:01 | 52.87994 | -2.44296 | 13963 ft | 399 kts | 127° |
| 2026-05-04 19:01 | 52.86337 | -2.40627 | 13417 ft | 397 kts | 127° |
| 2026-05-04 19:01 | 52.84681 | -2.36972 | 12907 ft | 394 kts | 127° |
| 2026-05-04 19:01 | 52.83042 | -2.33363 | 12412 ft | 391 kts | 127° |
| 2026-05-04 19:02 | 52.81415 | -2.29828 | 11918 ft | 388 kts | 129° |
| 2026-05-04 19:02 | 52.79709 | -2.26376 | 11431 ft | 385 kts | 130° |
| 2026-05-04 19:02 | 52.77976 | -2.23060 | 11101 ft | 375 kts | 132° |
| 2026-05-04 19:02 | 52.76284 | -2.19905 | 10976 ft | 358 kts | 132° |
| 2026-05-04 19:03 | 52.74673 | -2.16914 | 10843 ft | 335 kts | 132° |
| 2026-05-04 19:03 | 52.73186 | -2.14140 | 10710 ft | 310 kts | 132° |
| 2026-05-04 19:03 | 52.71807 | -2.11561 | 10315 ft | 297 kts | 133° |
| 2026-05-04 19:03 | 52.70195 | -2.09561 | 10005 ft | 289 kts | 159° |
| 2026-05-04 19:04 | 52.68258 | -2.08662 | 9723 ft | 290 kts | 169° |
| 2026-05-04 19:04 | 52.66281 | -2.08025 | 9450 ft | 288 kts | 170° |
| 2026-05-04 19:04 | 52.64331 | -2.07423 | 9199 ft | 287 kts | 171° |
| 2026-05-04 19:04 | 52.62371 | -2.06819 | 8934 ft | 286 kts | 171° |
| 2026-05-04 19:05 | 52.60407 | -2.06216 | 8676 ft | 283 kts | 171° |
| 2026-05-04 19:05 | 52.58504 | -2.05630 | 8533 ft | 272 kts | 171° |
| 2026-05-04 19:05 | 52.56699 | -2.05071 | 8338 ft | 263 kts | 171° |
| 2026-05-04 19:05 | 52.54909 | -2.04516 | 8017 ft | 260 kts | 171° |
| 2026-05-04 19:06 | 52.53127 | -2.03961 | 7698 ft | 257 kts | 171° |
| 2026-05-04 19:06 | 52.51360 | -2.03410 | 7488 ft | 258 kts | 171° |
| 2026-05-04 19:06 | 52.49627 | -2.02870 | 7262 ft | 253 kts | 171° |
| 2026-05-04 19:06 | 52.47913 | -2.02333 | 7040 ft | 248 kts | 171° |
| 2026-05-04 19:07 | 52.46222 | -2.01801 | 6816 ft | 246 kts | 171° |
| 2026-05-04 19:07 | 52.44543 | -2.01270 | 6596 ft | 245 kts | 171° |
| 2026-05-04 19:07 | 52.42869 | -2.00739 | 6374 ft | 244 kts | 171° |
| 2026-05-04 19:07 | 52.41198 | -2.00208 | 6139 ft | 244 kts | 170° |
| 2026-05-04 19:08 | 52.39532 | -1.99682 | 5899 ft | 244 kts | 170° |
| 2026-05-04 19:08 | 52.37891 | -1.99168 | 5670 ft | 243 kts | 171° |
| 2026-05-04 19:08 | 52.36227 | -1.98649 | 5437 ft | 242 kts | 171° |
| 2026-05-04 19:08 | 52.34584 | -1.98140 | 5191 ft | 236 kts | 170° |
| 2026-05-04 19:09 | 52.32987 | -1.97653 | 4977 ft | 232 kts | 170° |
| 2026-05-04 19:09 | 52.31395 | -1.97177 | 4743 ft | 231 kts | 171° |
| 2026-05-04 19:09 | 52.29835 | -1.96718 | 4515 ft | 230 kts | 170° |
| 2026-05-04 19:09 | 52.28333 | -1.95862 | 4215 ft | 228 kts | 146° |
| 2026-05-04 19:10 | 52.27242 | -1.94035 | 3869 ft | 224 kts | 117° |
| 2026-05-04 19:10 | 52.26797 | -1.91638 | 3517 ft | 220 kts | 90° |
| 2026-05-04 19:10 | 52.27062 | -1.89223 | 3191 ft | 216 kts | 63° |
| 2026-05-04 19:10 | 52.27884 | -1.87204 | 2935 ft | 211 kts | 50° |
| 2026-05-04 19:11 | 52.28773 | -1.85303 | 2805 ft | 212 kts | 51° |
| 2026-05-04 19:11 | 52.29644 | -1.83426 | 2681 ft | 201 kts | 52° |
| 2026-05-04 19:11 | 52.30473 | -1.81629 | 2591 ft | 195 kts | 51° |
| 2026-05-04 19:11 | 52.31267 | -1.79903 | 2449 ft | 186 kts | 52° |
| 2026-05-04 19:12 | 52.32038 | -1.78231 | 2310 ft | 182 kts | 51° |
| 2026-05-04 19:12 | 52.33544 | -1.74964 | 2054 ft | 180 kts | 51° |
| 2026-05-04 19:12 | 52.34290 | -1.73343 | 1938 ft | 173 kts | 52° |
| 2026-05-04 19:13 | 52.34990 | -1.71827 | 1858 ft | 163 kts | 52° |
| 2026-05-04 19:13 | 52.35664 | -1.70363 | 1798 ft | 158 kts | 51° |
| 2026-05-04 19:13 | 52.36348 | -1.68960 | 1811 ft | 158 kts | 43° |
| 2026-05-04 19:13 | 52.37245 | -1.68009 | 1831 ft | 156 kts | 21° |
| 2026-05-04 19:14 | 52.38253 | -1.67716 | 1749 ft | 143 kts | 359° |
| 2026-05-04 19:14 | 52.39211 | -1.68047 | 1627 ft | 140 kts | 338° |
| 2026-05-04 19:14 | 52.40046 | -1.68884 | 1477 ft | 140 kts | 327° |
| 2026-05-04 19:14 | 52.40854 | -1.69777 | 1299 ft | 139 kts | 328° |
| 2026-05-04 19:15 | 52.41645 | -1.70663 | 1063 ft | 139 kts | 328° |
| 2026-05-04 19:15 | 52.42444 | -1.71547 | 879 ft | 138 kts | 328° |
| 2026-05-04 19:15 | 52.43244 | -1.72430 | 691 ft | 138 kts | 327° |
| 2026-05-04 19:15 | 52.44038 | -1.73318 | 530 ft | 138 kts | 328° |
| 2026-05-04 19:16 | 52.44834 | -1.74193 | 337 ft | 136 kts | 328° |
| 2026-05-04 19:16 | 52.45493 | -1.74917 | 323 ft | 92 kts | 326° |
| 2026-05-04 19:16 | 52.45881 | -1.75348 | 320 ft | 45 kts | 326° |
| 2026-05-04 19:16 | 52.46100 | -1.75590 | 315 ft | 24 kts | 327° |
| 2026-05-04 19:17 | 52.46192 | -1.75520 | 315 ft | 17 kts | 56° |
| 2026-05-04 19:17 | 52.46184 | -1.75363 | 315 ft | 16 kts | 146° |
| 2026-05-04 19:17 | 52.46097 | -1.75262 | 317 ft | 14 kts | 147° |
| 2026-05-04 19:17 | 52.46022 | -1.75181 | 318 ft | 12 kts | 146° |
| 2026-05-04 19:18 | 52.45962 | -1.75114 | 319 ft | 10 kts | 146° |
| 2026-05-04 19:18 | 52.45903 | -1.75049 | 320 ft | 9 kts | 146° |
| 2026-05-04 19:18 | 52.45851 | -1.74992 | 320 ft | 11 kts | 145° |
| 2026-05-04 19:18 | 52.45783 | -1.74913 | 321 ft | 11 kts | 144° |
| 2026-05-04 19:19 | 52.45725 | -1.74848 | 321 ft | 9 kts | 146° |
| 2026-05-04 19:19 | 52.45680 | -1.74797 | 322 ft | 7 kts | 145° |
| 2026-05-04 19:19 | 52.45646 | -1.74759 | 323 ft | 5 kts | 145° |
| 2026-05-04 19:19 | 52.45623 | -1.74733 | 324 ft | 3 kts | 145° |